Time;durP1;ratioP1;P1;durP2;ratioP2;P2;SDS_P1;SDS_P2;PMS_P1;PMS_P2;Temp;Humidity;BMP_temperature;BMP_pressure;BME280_temperature;BME280_humidity;BME280_pressure;Samples;Min_cycle;Max_cycle;Signal;HPM_P1;HPM_P2
2022/05/24 00:01:19;;;;;;;;;;;;;;;21.45;51.29;100056.72;6129944;23;19994;-77
2022/05/24 00:03:44;;;;;;;;;;;;;;;21.45;51.40;100054.09;6130440;23;19917;-77
2022/05/24 00:06:09;;;;;;;;;;;;;;;21.44;51.29;100060.25;6129759;23;19959;-76
2022/05/24 00:08:35;;;;;;;;;;;;;;;21.44;51.25;100055.88;6156262;23;19908;-77
2022/05/24 00:11:00;;;;;;;;;;;;;;;21.44;51.28;100055.03;6156091;23;19916;-77
2022/05/24 00:13:25;;;;;;;;;;;;;;;21.43;51.26;100043.72;6155997;23;19947;-77
2022/05/24 00:15:51;;;;;;;;;;;;;;;21.44;51.20;100050.63;6078354;23;1842316;-77
2022/05/24 00:18:18;;;;;;;;;;;;;;;21.44;51.41;100049.78;6106952;23;20290;-76
2022/05/24 00:20:45;;;;;;;;;;;;;;;21.45;51.41;100048.88;6131091;23;20004;-76
2022/05/24 00:23:11;;;;;;;;;;;;;;;21.44;51.39;100048.03;6157298;23;19909;-76
2022/05/24 00:25:38;;;;;;;;;;;;;;;21.44;51.31;100050.63;6130963;23;19915;-76
2022/05/24 00:28:04;;;;;;;;;;;;;;;21.44;51.19;100055.03;6157253;23;20344;-76
2022/05/24 00:30:29;;;;;;;;;;;;;;;21.42;51.17;100057.69;6157299;23;19971;-76
2022/05/24 00:32:54;;;;;;;;;;;;;;;21.43;51.33;100061.19;6106771;23;19916;-76
2022/05/24 00:35:20;;;;;;;;;;;;;;;21.42;51.53;100054.22;6156905;23;19979;-76
2022/05/24 00:37:46;;;;;;;;;;;;;;;21.42;51.25;100052.47;6157750;23;19936;-76
2022/05/24 00:40:21;;;;;;;;;;;;;;;21.42;51.22;100057.69;6157242;23;19908;-75
2022/05/24 00:42:47;;;;;;;;;;;;;;;21.42;51.45;100056.84;6157088;23;19909;-76
2022/05/24 00:45:21;;;;;;;;;;;;;;;21.42;51.12;100059.47;6157042;23;19959;-76
2022/05/24 00:47:51;;;;;;;;;;;;;;;21.43;51.14;100062.03;6157182;23;19908;-76
2022/05/24 00:50:27;;;;;;;;;;;;;;;21.43;51.22;100061.19;6156971;23;19908;-76
2022/05/24 00:52:58;;;;;;;;;;;;;;;21.42;51.15;100057.69;6157344;23;19936;-76
2022/05/24 00:55:29;;;;;;;;;;;;;;;21.42;51.14;100047.22;6156896;23;19912;-76
2022/05/24 00:58:02;;;;;;;;;;;;;;;21.42;51.23;100049.00;6131012;23;19915;-77
2022/05/24 01:00:28;;;;;;;;;;;;;;;21.42;51.21;100049.84;6131052;23;20007;-77
2022/05/24 01:02:53;;;;;;;;;;;;;;;21.40;51.21;100042.94;6130754;23;19913;-78
2022/05/24 01:05:21;;;;;;;;;;;;;;;21.42;51.16;100035.91;6157216;23;19913;-77
2022/05/24 01:10:31;;;;;;;;;;;;;;;21.40;51.29;100038.53;6098692;23;19976;-77
2022/05/24 01:13:00;;;;;;;;;;;;;;;21.40;51.37;100035.09;6097721;23;20333;-77
2022/05/24 01:18:16;;;;;;;;;;;;;;;21.40;51.28;100029.84;6153502;23;19967;-77
2022/05/24 01:20:44;;;;;;;;;;;;;;;21.40;51.25;100030.69;6123686;23;19944;-77
2022/05/24 01:23:10;;;;;;;;;;;;;;;21.40;51.10;100035.09;6103848;23;20042;-77
2022/05/24 01:25:50;;;;;;;;;;;;;;;21.40;51.24;100037.69;6159731;23;19912;-77
2022/05/24 01:28:21;;;;;;;;;;;;;;;21.39;51.22;100044.72;6159714;23;19908;-77
2022/05/24 01:30:46;;;;;;;;;;;;;;;21.40;51.31;100042.94;6159880;23;20340;-77
2022/05/24 01:36:13;;;;;;;;;;;;;;;21.38;51.18;100050.84;6159669;23;19967;-77
2022/05/24 01:38:44;;;;;;;;;;;;;;;21.39;51.14;100041.25;6136693;23;20288;-77
2022/05/24 01:41:11;;;;;;;;;;;;;;;21.38;51.08;100045.59;6159934;23;20383;-77
2022/05/24 01:43:37;;;;;;;;;;;;;;;21.40;51.13;100040.31;6160137;23;19909;-77
2022/05/24 01:46:05;;;;;;;;;;;;;;;21.39;51.18;100043.88;6134183;23;19923;-77
2022/05/24 01:48:33;;;;;;;;;;;;;;;21.39;51.26;100041.25;6160083;23;19916;-77
2022/05/24 01:50:59;;;;;;;;;;;;;;;21.39;51.18;100038.63;6159848;23;19932;-77
2022/05/24 01:53:30;;;;;;;;;;;;;;;21.39;51.16;100042.09;6158244;23;19959;-77
2022/05/24 01:55:57;;;;;;;;;;;;;;;21.38;51.11;100035.13;6159957;23;20317;-77
2022/05/24 01:58:26;;;;;;;;;;;;;;;21.37;51.18;100033.44;6133726;23;19943;-77
2022/05/24 02:01:15;;;;;;;;;;;;;;;21.38;51.10;100035.13;6160305;23;19916;-77
2022/05/24 02:03:40;;;;;;;;;;;;;;;21.37;51.18;100036.06;6142880;23;19915;-77
2022/05/24 02:06:19;;;;;;;;;;;;;;;21.38;51.01;100035.13;6158573;23;19908;-77
2022/05/24 02:08:44;;;;;;;;;;;;;;;21.37;51.08;100038.69;6159650;23;20244;-77
2022/05/24 02:11:10;;;;;;;;;;;;;;;21.37;51.04;100033.44;6159593;23;19913;-77
2022/05/24 02:13:39;;;;;;;;;;;;;;;21.37;51.32;100033.44;6133696;23;20222;-77
2022/05/24 02:16:08;;;;;;;;;;;;;;;21.35;51.25;100032.66;6159715;23;19920;-77
2022/05/24 02:18:34;;;;;;;;;;;;;;;21.36;51.05;100037.84;6133635;23;19909;-77
2022/05/24 02:20:59;;;;;;;;;;;;;;;21.36;51.19;100034.34;6159456;23;20343;-77
2022/05/24 02:23:25;;;;;;;;;;;;;;;21.35;51.02;100037.88;6109201;23;19919;-76
2022/05/24 02:25:54;;;;;;;;;;;;;;;21.36;51.25;100034.34;6159970;23;19912;-77
2022/05/24 02:28:22;;;;;;;;;;;;;;;21.35;51.26;100030.88;6133758;23;19909;-77
2022/05/24 02:30:52;;;;;;;;;;;;;;;21.35;50.88;100035.25;6160393;23;19908;-77
2022/05/24 02:33:18;;;;;;;;;;;;;;;21.34;50.94;100029.19;6159835;23;19956;-77
2022/05/24 02:35:43;;;;;;;;;;;;;;;21.35;51.01;100023.03;6158367;23;19917;-76
2022/05/24 02:38:09;;;;;;;;;;;;;;;21.34;51.00;100018.72;6158529;23;19920;-77
2022/05/24 02:43:18;;;;;;;;;;;;;;;21.33;50.98;100017.00;6158418;23;20036;-77
2022/05/24 02:45:43;;;;;;;;;;;;;;;21.34;50.95;100020.50;6131950;23;19908;-76
2022/05/24 02:48:09;;;;;;;;;;;;;;;21.34;51.05;100020.50;6158053;23;19912;-76
2022/05/24 02:50:34;;;;;;;;;;;;;;;21.35;51.23;100014.31;6156630;23;19909;-76
2022/05/24 02:53:00;;;;;;;;;;;;;;;21.35;51.05;100016.94;6158363;23;19992;-76
2022/05/24 02:55:25;;;;;;;;;;;;;;;21.34;51.26;100021.34;6158065;23;19913;-77
2022/05/24 02:57:50;;;;;;;;;;;;;;;21.33;50.99;100013.53;6131967;23;19994;-77
2022/05/24 03:00:17;;;;;;;;;;;;;;;21.33;51.13;100006.53;6158481;23;19913;-77
2022/05/24 03:02:43;;;;;;;;;;;;;;;21.34;51.18;100020.50;6157980;23;19912;-76
2022/05/24 03:05:10;;;;;;;;;;;;;;;21.33;50.92;100016.16;6158167;23;19992;-77
2022/05/24 03:10:19;;;;;;;;;;;;;;;21.33;50.99;100024.00;6136361;23;19966;-77
2022/05/24 03:15:28;;;;;;;;;;;;;;;21.31;50.97;100024.03;6157709;23;19971;-77
2022/05/24 03:17:54;;;;;;;;;;;;;;;21.32;51.04;100031.00;6158106;23;19909;-77
2022/05/24 03:20:20;;;;;;;;;;;;;;;21.32;50.97;100032.78;6157501;23;19915;-76
2022/05/24 03:22:45;;;;;;;;;;;;;;;21.32;51.10;100031.00;6158379;23;20297;-76
2022/05/24 03:25:11;;;;;;;;;;;;;;;21.33;51.00;100031.84;6157094;23;19915;-76
2022/05/24 03:27:36;;;;;;;;;;;;;;;21.32;51.12;100030.16;6131641;23;19912;-76
2022/05/24 03:30:01;;;;;;;;;;;;;;;21.33;51.03;100034.47;6132050;23;19931;-77
2022/05/24 03:32:27;;;;;;;;;;;;;;;21.31;50.97;100031.06;6132059;23;19916;-77
2022/05/24 03:34:52;;;;;;;;;;;;;;;21.32;50.93;100040.63;6131449;23;19995;-78
2022/05/24 03:37:18;;;;;;;;;;;;;;;21.31;51.00;100044.97;6131762;23;19908;-77
2022/05/24 03:39:43;;;;;;;;;;;;;;;21.31;50.97;100046.75;6107147;23;19912;-78
2022/05/24 03:42:08;;;;;;;;;;;;;;;21.32;50.97;100058.94;6131881;23;19913;-77
2022/05/24 03:44:33;;;;;;;;;;;;;;;21.30;51.11;100059.00;6131481;23;19913;-77
2022/05/24 03:46:59;;;;;;;;;;;;;;;21.31;50.85;100062.47;6131897;23;19913;-77
2022/05/24 03:49:24;;;;;;;;;;;;;;;21.30;51.00;100066.84;6107464;23;19913;-77
2022/05/24 03:51:50;;;;;;;;;;;;;;;21.31;50.93;100072.91;6131418;23;19932;-77
2022/05/24 03:54:16;;;;;;;;;;;;;;;21.30;50.91;100069.47;6107155;23;19923;-78
2022/05/24 03:59:25;;;;;;;;;;;;;;;21.29;50.85;100082.59;6157584;23;19955;-77
2022/05/24 04:01:51;;;;;;;;;;;;;;;21.30;50.95;100076.47;6131298;23;19917;-77
2022/05/24 04:04:16;;;;;;;;;;;;;;;21.30;51.00;100085.16;6157521;23;19936;-77
2022/05/24 04:06:41;;;;;;;;;;;;;;;21.30;50.82;100093.00;6106877;23;20344;-77
2022/05/24 04:09:06;;;;;;;;;;;;;;;21.31;50.79;100097.31;6106889;23;19968;-77
2022/05/24 04:11:32;;;;;;;;;;;;;;;21.31;50.77;100099.94;6106955;23;19979;-77
2022/05/24 04:13:57;;;;;;;;;;;;;;;21.33;50.95;100105.13;6131298;23;19905;-77
2022/05/24 04:16:22;;;;;;;;;;;;;;;21.34;50.82;100112.09;6131390;23;19963;-77
2022/05/24 04:18:47;;;;;;;;;;;;;;;21.33;50.81;100119.06;6106573;23;19913;-77
2022/05/24 04:21:14;;;;;;;;;;;;;;;21.32;50.86;100116.53;6130961;23;19924;-80
2022/05/24 04:23:39;;;;;;;;;;;;;;;21.32;51.00;100119.97;6131249;23;19917;-77
2022/05/24 04:26:05;;;;;;;;;;;;;;;21.32;50.81;100119.13;6106799;23;20007;-77
2022/05/24 04:28:30;;;;;;;;;;;;;;;21.30;50.99;100110.47;6131538;23;19915;-76
2022/05/24 04:30:55;;;;;;;;;;;;;;;21.31;50.83;100115.63;6131368;23;19908;-76
2022/05/24 04:33:20;;;;;;;;;;;;;;;21.32;50.96;100111.28;6106623;23;19913;-78
2022/05/24 04:35:46;;;;;;;;;;;;;;;21.32;50.73;100106.91;6131154;23;19920;-83
2022/05/24 04:38:12;;;;;;;;;;;;;;;21.32;50.83;100106.06;6131140;23;20335;-79
2022/05/24 04:43:22;;;;;;;;;;;;;;;21.32;50.81;100106.06;6156956;23;20252;-78
2022/05/24 04:45:47;;;;;;;;;;;;;;;21.31;51.04;100101.72;6156885;23;19909;-77
2022/05/24 04:48:12;;;;;;;;;;;;;;;21.28;51.00;100091.38;6130898;23;19963;-78
2022/05/24 04:50:38;;;;;;;;;;;;;;;21.23;51.21;100093.28;6106329;23;19913;-81
2022/05/24 04:53:03;;;;;;;;;;;;;;;21.21;51.06;100106.44;6130820;23;19987;-79
2022/05/24 04:55:29;;;;;;;;;;;;;;;21.20;51.08;100106.47;6131140;23;19917;-84
2022/05/24 04:57:55;;;;;;;;;;;;;;;21.26;51.04;100101.88;6106366;23;19991;-85
2022/05/24 05:00:21;;;;;;;;;;;;;;;21.26;50.84;100098.41;6131051;23;19991;-80
2022/05/24 05:02:46;;;;;;;;;;;;;;;21.17;50.99;100091.75;6106812;23;19941;-80
2022/05/24 05:05:13;;;;;;;;;;;;;;;21.12;51.05;100097.16;6131581;23;19944;-85
2022/05/24 05:07:38;;;;;;;;;;;;;;;21.09;50.73;100089.41;6158557;23;19916;-81
2022/05/24 05:10:04;;;;;;;;;;;;;;;21.11;50.36;100090.19;6132787;23;19913;-83
2022/05/24 05:12:29;;;;;;;;;;;;;;;21.12;50.54;100101.50;6134289;23;20031;-83
2022/05/24 05:14:54;;;;;;;;;;;;;;;21.13;50.44;100101.47;6163360;23;20241;-82
2022/05/24 05:17:20;;;;;;;;;;;;;;;21.33;49.51;100102.50;6110158;23;20239;-83
2022/05/24 05:19:46;;;;;;;;;;;;;;;21.54;48.19;100114.84;6159067;23;19936;-82
2022/05/24 05:22:11;;;;;;;;;;;;;;;21.45;47.69;100117.81;6132195;23;19917;-83
2022/05/24 05:24:37;;;;;;;;;;;;;;;21.39;47.70;100114.53;6158688;23;20295;-82
2022/05/24 05:27:03;;;;;;;;;;;;;;;21.46;47.59;100126.50;6133370;23;19916;-83
2022/05/24 05:32:20;;;;;;;;;;;;;;;21.73;46.93;100140.31;6157987;23;20228;-82
2022/05/24 05:34:45;;;;;;;;;;;;;;;22.31;44.90;100148.56;6131264;23;19913;-83
2022/05/24 05:37:11;;;;;;;;;;;;;;;22.64;43.98;100147.25;6130834;23;19908;-81
2022/05/24 05:39:36;;;;;;;;;;;;;;;23.60;41.45;100150.97;6106722;23;19919;-81
2022/05/24 05:42:02;;;;;;;;;;;;;;;24.20;39.82;100131.56;6106149;23;20328;-80
2022/05/24 05:44:29;;;;;;;;;;;;;;;23.44;41.74;100141.22;6106715;23;19913;-81
2022/05/24 05:46:54;;;;;;;;;;;;;;;23.15;42.25;100153.84;6130744;23;19936;-83
2022/05/24 05:49:20;;;;;;;;;;;;;;;23.04;42.89;100156.94;6106656;23;19916;-82
2022/05/24 05:51:45;;;;;;;;;;;;;;;22.31;44.99;100166.91;6130856;23;19912;-83
2022/05/24 05:54:10;;;;;;;;;;;;;;;22.00;46.11;100162.00;6106599;23;19912;-83
2022/05/24 05:56:35;;;;;;;;;;;;;;;22.05;46.54;100169.66;6106352;23;19913;-81
2022/05/24 05:59:01;;;;;;;;;;;;;;;22.54;45.18;100170.38;6106095;23;19912;-81
2022/05/24 06:01:29;;;;;;;;;;;;;;;22.67;45.19;100168.09;6106253;23;19948;-80
2022/05/24 06:03:56;;;;;;;;;;;;;;;22.01;46.99;100173.31;6106894;23;19920;-80
2022/05/24 06:06:23;;;;;;;;;;;;;;;21.74;47.67;100163.81;6106294;23;19961;-81
2022/05/24 06:08:48;;;;;;;;;;;;;;;21.64;47.98;100170.31;6131346;23;19909;-80
2022/05/24 06:11:14;;;;;;;;;;;;;;;21.57;48.02;100172.31;6132880;23;19915;-80
2022/05/24 06:13:39;;;;;;;;;;;;;;;21.55;48.34;100178.50;6132324;23;19987;-81
2022/05/24 06:16:04;;;;;;;;;;;;;;;21.52;48.40;100182.09;6108064;23;19917;-80
2022/05/24 06:18:30;;;;;;;;;;;;;;;21.52;48.53;100195.19;6108494;23;19912;-82
2022/05/24 06:20:55;;;;;;;;;;;;;;;21.50;48.51;100211.88;6132349;23;19948;-80
2022/05/24 06:23:21;;;;;;;;;;;;;;;21.47;48.78;100212.84;6109311;23;20292;-81
2022/05/24 06:25:46;;;;;;;;;;;;;;;21.47;48.59;100214.56;6158801;23;19919;-82
2022/05/24 06:28:15;;;;;;;;;;;;;;;21.45;48.79;100214.66;6132544;23;19936;-81
2022/05/24 06:30:40;;;;;;;;;;;;;;;21.45;48.58;100209.41;6108135;23;20325;-82
2022/05/24 06:33:06;;;;;;;;;;;;;;;21.47;48.83;100217.19;6132134;23;19971;-82
2022/05/24 06:35:31;;;;;;;;;;;;;;;21.51;48.55;100213.56;6132346;23;20256;-82
2022/05/24 06:37:56;;;;;;;;;;;;;;;21.63;48.19;100200.03;6107922;23;19913;-80
2022/05/24 06:40:22;;;;;;;;;;;;;;;22.09;47.29;100210.56;6107908;23;19975;-80
2022/05/24 06:42:47;;;;;;;;;;;;;;;22.07;47.39;100212.38;6107926;23;20221;-80
2022/05/24 06:45:13;;;;;;;;;;;;;;;22.00;47.81;100216.16;6156833;23;20036;-80
2022/05/24 06:47:38;;;;;;;;;;;;;;;21.86;47.97;100221.91;6107827;23;19913;-80
2022/05/24 06:50:04;;;;;;;;;;;;;;;21.98;47.81;100222.28;6132197;23;19944;-81
2022/05/24 06:52:30;;;;;;;;;;;;;;;22.29;47.37;100226.41;6131973;23;19985;-80
2022/05/24 06:54:55;;;;;;;;;;;;;;;22.39;46.68;100227.75;6156573;23;19912;-81
2022/05/24 06:57:20;;;;;;;;;;;;;;;22.30;47.09;100229.91;6107869;23;19948;-81
2022/05/24 07:02:30;;;;;;;;;;;;;;;21.89;48.30;100235.75;6158146;23;19955;-81
2022/05/24 07:04:57;;;;;;;;;;;;;;;21.81;48.30;100236.94;6107696;23;19960;-80
2022/05/24 07:07:24;;;;;;;;;;;;;;;21.77;48.21;100244.03;6132169;23;19948;-81
2022/05/24 07:09:49;;;;;;;;;;;;;;;21.92;48.15;100243.47;6131932;23;19959;-81
2022/05/24 07:12:16;;;;;;;;;;;;;;;22.21;47.72;100246.78;6132202;23;19909;-81
2022/05/24 07:14:42;;;;;;;;;;;;;;;23.05;45.52;100257.50;6157988;23;19967;-80
2022/05/24 07:17:07;;;;;;;;;;;;;;;23.66;43.66;100248.78;6107408;23;19917;-81
2022/05/24 07:19:32;;;;;;;;;;;;;;;23.10;44.94;100251.13;6108195;23;19917;-81
2022/05/24 07:21:58;;;;;;;;;;;;;;;23.03;45.36;100249.69;6157538;23;20344;-82
2022/05/24 07:24:23;;;;;;;;;;;;;;;22.72;45.96;100250.91;6131940;23;19912;-81
2022/05/24 07:26:48;;;;;;;;;;;;;;;22.71;46.04;100257.09;6107241;23;20254;-81
2022/05/24 07:29:13;;;;;;;;;;;;;;;22.34;46.98;100271.66;6107683;23;19988;-81
2022/05/24 07:31:39;;;;;;;;;;;;;;;22.13;47.58;100262.78;6131644;23;19916;-82
2022/05/24 07:34:04;;;;;;;;;;;;;;;22.05;47.76;100277.09;6107115;23;20237;-81
2022/05/24 07:36:29;;;;;;;;;;;;;;;21.98;47.77;100282.56;6131831;23;19920;-81
2022/05/24 07:38:55;;;;;;;;;;;;;;;21.95;48.19;100282.69;6157675;23;20280;-81
2022/05/24 07:46:48;;;;;;;;;;;;;;;21.83;48.53;100298.81;6158202;23;19919;-80
2022/05/24 07:49:14;;;;;;;;;;;;;;;21.95;48.11;100306.25;6131609;23;19936;-81
2022/05/24 07:51:39;;;;;;;;;;;;;;;22.22;47.69;100305.31;6107128;23;19912;-81
2022/05/24 07:54:04;;;;;;;;;;;;;;;22.27;47.31;100303.38;6106841;23;19919;-80
2022/05/24 07:56:29;;;;;;;;;;;;;;;22.17;47.57;100314.19;6131473;23;19916;-81
2022/05/24 07:58:55;;;;;;;;;;;;;;;22.05;48.05;100312.00;6106901;23;19913;-81
2022/05/24 08:01:20;;;;;;;;;;;;;;;22.01;48.15;100312.19;6106980;23;19912;-81
2022/05/24 08:03:46;;;;;;;;;;;;;;;21.98;48.23;100324.47;6157544;23;19908;-82
2022/05/24 08:06:12;;;;;;;;;;;;;;;21.95;48.27;100329.84;6131332;23;19908;-82
2022/05/24 08:08:38;;;;;;;;;;;;;;;21.92;48.46;100337.78;6131552;23;19908;-81
2022/05/24 08:11:04;;;;;;;;;;;;;;;21.94;48.32;100335.13;6106941;23;19920;-82
2022/05/24 08:13:29;;;;;;;;;;;;;;;22.14;47.91;100335.25;6131300;23;19991;-81
2022/05/24 08:15:54;;;;;;;;;;;;;;;22.51;47.02;100328.66;6131225;23;19916;-82
2022/05/24 08:18:20;;;;;;;;;;;;;;;22.72;46.30;100331.38;6157816;23;19908;-81
2022/05/24 08:20:46;;;;;;;;;;;;;;;22.77;46.04;100330.28;6131719;23;19962;-82
2022/05/24 08:23:12;;;;;;;;;;;;;;;22.71;46.44;100340.16;6106394;23;19913;-82
2022/05/24 08:25:38;;;;;;;;;;;;;;;22.52;46.68;100342.66;6131093;23;19983;-81
2022/05/24 08:28:07;;;;;;;;;;;;;;;22.28;47.55;100352.28;6157320;23;19920;-81
2022/05/24 08:30:34;;;;;;;;;;;;;;;22.22;47.76;100347.22;6131256;23;19960;-82
2022/05/24 08:32:59;;;;;;;;;;;;;;;22.34;47.40;100339.81;6130629;23;19909;-81
2022/05/24 08:35:25;;;;;;;;;;;;;;;22.21;47.89;100356.88;6131083;23;19917;-81
2022/05/24 08:37:50;;;;;;;;;;;;;;;22.08;48.17;100359.06;6131622;23;19912;-81
2022/05/24 08:40:16;;;;;;;;;;;;;;;22.01;48.44;100365.41;6157666;23;19913;-82
2022/05/24 08:42:57;;;;;;;;;;;;;;;21.98;48.47;100376.88;6131108;23;19916;-82
2022/05/24 08:48:33;;;;;;;;;;;;;;;21.96;48.40;100386.53;6157415;23;19915;-81
2022/05/24 08:51:19;;;;;;;;;;;;;;;21.96;48.39;100383.94;6119419;23;19909;-82
2022/05/24 08:53:46;;;;;;;;;;;;;;;21.95;48.33;100377.00;6130315;23;19960;-82
2022/05/24 08:56:15;;;;;;;;;;;;;;;21.99;48.36;100388.19;6157285;23;19912;-82
2022/05/24 08:58:54;;;;;;;;;;;;;;;22.01;48.43;100396.00;6131306;23;20285;-82
2022/05/24 09:01:29;;;;;;;;;;;;;;;22.03;48.28;100388.97;6131428;23;19916;-82
2022/05/24 09:03:57;;;;;;;;;;;;;;;22.03;48.01;100408.16;6131118;23;19947;-82
2022/05/24 09:06:24;;;;;;;;;;;;;;;21.97;48.27;100411.84;6106475;23;19932;-82
2022/05/24 09:09:06;;;;;;;;;;;;;;;21.95;48.21;100407.59;6131060;23;19930;-83
2022/05/24 09:11:34;;;;;;;;;;;;;;;21.96;48.40;100412.75;6130793;23;20340;-82
2022/05/24 09:14:06;;;;;;;;;;;;;;;22.01;48.30;100416.97;6130661;23;19959;-82
2022/05/24 09:16:52;;;;;;;;;;;;;;;22.03;48.09;100416.00;6156980;23;19913;-82
2022/05/24 09:19:23;;;;;;;;;;;;;;;22.06;48.14;100426.41;6130995;23;19915;-83
2022/05/24 09:21:52;;;;;;;;;;;;;;;22.16;47.59;100427.75;6130806;23;20213;-82
2022/05/24 09:24:20;;;;;;;;;;;;;;;22.23;47.64;100438.06;6130891;23;19915;-82
2022/05/24 09:27:07;;;;;;;;;;;;;;;22.25;47.55;100441.50;6130626;23;19909;-82
2022/05/24 09:29:33;;;;;;;;;;;;;;;22.21;47.46;100455.59;6156749;23;19920;-82
2022/05/24 09:32:03;;;;;;;;;;;;;;;22.14;48.05;100452.31;6130710;23;19908;-82
2022/05/24 09:34:30;;;;;;;;;;;;;;;22.08;48.19;100460.38;6131006;23;19919;-81
2022/05/24 09:36:55;;;;;;;;;;;;;;;22.12;48.05;100467.25;6130336;23;19916;-80
2022/05/24 09:39:31;;;;;;;;;;;;;;;22.12;48.09;100470.75;6156933;23;19909;-82
2022/05/24 09:42:02;;;;;;;;;;;;;;;22.09;47.86;100478.69;6130684;23;19967;-82
2022/05/24 09:44:47;;;;;;;;;;;;;;;22.08;48.17;100484.84;6131791;23;19915;-82
2022/05/24 09:47:25;;;;;;;;;;;;;;;22.11;48.00;100482.13;6131774;23;19936;-81
2022/05/24 09:49:50;;;;;;;;;;;;;;;22.10;48.17;100493.53;6133255;23;19908;-82
2022/05/24 09:52:16;;;;;;;;;;;;;;;22.07;48.10;100500.63;6132748;23;19909;-81
2022/05/24 09:54:53;;;;;;;;;;;;;;;22.08;47.95;100511.06;6158619;23;19919;-81
2022/05/24 09:57:23;;;;;;;;;;;;;;;22.11;48.08;100510.94;6132386;23;20347;-81
2022/05/24 10:00:12;;;;;;;;;;;;;;;22.13;47.99;100511.75;6132779;23;19912;-82
2022/05/24 10:02:39;;;;;;;;;;;;;;;22.14;47.95;100521.31;6132492;23;19915;-82
2022/05/24 10:05:15;;;;;;;;;;;;;;;22.19;48.04;100513.31;6132530;23;19919;-83
2022/05/24 10:07:53;;;;;;;;;;;;;;;22.21;47.79;100529.84;6132585;23;19910;-83
2022/05/24 10:10:22;;;;;;;;;;;;;;;22.20;47.75;100538.59;6132854;23;19958;-84
2022/05/24 10:13:06;;;;;;;;;;;;;;;22.17;48.05;100533.47;6132378;23;19908;-83
2022/05/24 10:15:47;;;;;;;;;;;;;;;22.16;48.10;100540.47;6132938;23;19912;-83
2022/05/24 10:18:19;;;;;;;;;;;;;;;22.16;48.20;100547.47;6132579;23;19920;-84
2022/05/24 10:20:49;;;;;;;;;;;;;;;22.19;47.97;100557.88;6132335;23;19912;-83
2022/05/24 10:23:26;;;;;;;;;;;;;;;22.21;47.95;100555.19;6132502;23;19908;-83
2022/05/24 10:26:09;;;;;;;;;;;;;;;22.22;47.87;100549.94;6158654;23;19908;-83
2022/05/24 10:28:42;;;;;;;;;;;;;;;22.19;48.01;100552.63;6132596;23;19919;-83
2022/05/24 10:31:26;;;;;;;;;;;;;;;22.18;47.97;100559.59;6132538;23;19916;-83
2022/05/24 10:40:19;;;;;;;;;;;;;;;22.18;48.02;100572.72;6091019;23;20320;-82
2022/05/24 10:42:51;;;;;;;;;;;;;;;22.18;48.20;100574.50;6131808;23;19987;-82
2022/05/24 10:45:17;;;;;;;;;;;;;;;22.24;47.99;100583.97;6131881;23;19908;-82
2022/05/24 10:47:50;;;;;;;;;;;;;;;22.24;47.89;100590.06;6158437;23;20031;-81
2022/05/24 10:50:20;;;;;;;;;;;;;;;22.25;47.96;100598.75;6132450;23;19908;-83
2022/05/24 10:52:57;;;;;;;;;;;;;;;22.23;47.95;100593.56;6132203;23;19915;-82
2022/05/24 10:55:36;;;;;;;;;;;;;;;22.18;48.31;100580.56;6157509;23;19913;-82
2022/05/24 10:58:11;;;;;;;;;;;;;;;22.16;48.03;100581.53;6131835;23;19915;-82
2022/05/24 11:00:39;;;;;;;;;;;;;;;22.16;48.15;100584.16;6131863;23;19909;-82
2022/05/24 11:03:12;;;;;;;;;;;;;;;22.17;48.27;100599.00;6131884;23;19955;-82
2022/05/24 11:05:43;;;;;;;;;;;;;;;22.16;48.19;100597.25;6132094;23;19951;-83
2022/05/24 11:08:26;;;;;;;;;;;;;;;22.14;47.99;100593.84;6131988;23;19908;-82
2022/05/24 11:10:52;;;;;;;;;;;;;;;22.13;48.15;100598.22;6131885;23;19908;-81
2022/05/24 11:13:22;;;;;;;;;;;;;;;22.13;48.12;100597.38;6132055;23;19908;-82
2022/05/24 11:15:56;;;;;;;;;;;;;;;22.13;48.23;100600.00;6156475;23;19912;-82
2022/05/24 11:18:23;;;;;;;;;;;;;;;22.14;48.26;100606.94;6132088;23;19913;-81
2022/05/24 11:20:52;;;;;;;;;;;;;;;22.14;48.08;100602.56;6131615;23;19915;-82
2022/05/24 11:23:22;;;;;;;;;;;;;;;22.13;48.22;100600.84;6131830;23;19984;-81
2022/05/24 11:25:47;;;;;;;;;;;;;;;22.14;47.99;100609.56;6157797;23;19909;-82
2022/05/24 11:28:21;;;;;;;;;;;;;;;22.16;48.13;100607.75;6131751;23;19912;-84
2022/05/24 11:30:47;;;;;;;;;;;;;;;22.16;48.13;100610.38;6132282;23;20348;-84
2022/05/24 11:33:33;;;;;;;;;;;;;;;22.15;48.13;100613.91;6109972;23;19916;-84
2022/05/24 11:36:18;;;;;;;;;;;;;;;22.16;48.08;100610.38;6131632;23;19935;-83
2022/05/24 11:38:44;;;;;;;;;;;;;;;22.16;47.71;100611.22;6158213;23;20306;-84
2022/05/24 11:41:12;;;;;;;;;;;;;;;22.14;48.12;100615.66;6133302;23;19913;-84
2022/05/24 11:43:43;;;;;;;;;;;;;;;22.10;48.11;100621.94;6135049;23;19916;-84
2022/05/24 11:46:27;;;;;;;;;;;;;;;22.11;48.00;100634.09;6136508;23;20313;-84
2022/05/24 11:48:54;;;;;;;;;;;;;;;22.12;48.13;100617.50;6133129;23;20508;-83
2022/05/24 11:51:31;;;;;;;;;;;;;;;22.12;48.14;100629.72;6132735;23;19909;-84
2022/05/24 11:53:57;;;;;;;;;;;;;;;22.12;48.15;100638.47;6158154;23;19931;-83
2022/05/24 11:56:24;;;;;;;;;;;;;;;22.11;47.99;100641.13;6107069;23;19916;-83
2022/05/24 11:58:55;;;;;;;;;;;;;;;22.09;48.22;100649.03;6132447;23;19962;-83
2022/05/24 12:01:23;;;;;;;;;;;;;;;22.09;48.16;100645.56;6131786;23;19912;-83
2022/05/24 12:09:55;;;;;;;;;;;;;;;22.10;48.06;100670.84;6157809;23;19920;-83
2022/05/24 12:12:40;;;;;;;;;;;;;;;22.12;47.88;100672.53;6131496;23;20329;-82
2022/05/24 12:15:13;;;;;;;;;;;;;;;22.14;47.89;100675.09;6131477;23;19959;-82
2022/05/24 12:17:39;;;;;;;;;;;;;;;22.18;47.55;100677.56;6131347;23;20234;-82
2022/05/24 12:20:24;;;;;;;;;;;;;;;22.21;47.41;100683.59;6131183;23;19995;-81
2022/05/24 12:23:09;;;;;;;;;;;;;;;22.21;47.88;100691.47;6130707;23;19928;-82
2022/05/24 12:25:53;;;;;;;;;;;;;;;22.21;47.83;100686.22;6131239;23;20288;-82
2022/05/24 12:28:24;;;;;;;;;;;;;;;22.19;47.59;100697.63;6130971;23;19909;-83
2022/05/24 12:30:49;;;;;;;;;;;;;;;22.23;47.56;100687.06;6131450;23;19978;-83
2022/05/24 12:33:24;;;;;;;;;;;;;;;22.21;47.72;100694.09;6131094;23;20316;-84
2022/05/24 12:36:04;;;;;;;;;;;;;;;22.21;47.82;100701.97;6131343;23;19935;-84
2022/05/24 12:38:30;;;;;;;;;;;;;;;22.23;47.40;100702.78;6131106;23;19908;-83
2022/05/24 12:41:14;;;;;;;;;;;;;;;22.25;47.56;100703.63;6131300;23;19916;-83
2022/05/24 12:43:56;;;;;;;;;;;;;;;22.24;47.75;100696.66;6131055;23;19932;-82
2022/05/24 12:46:22;;;;;;;;;;;;;;;22.26;47.72;100705.34;6131087;23;19908;-82
2022/05/24 12:48:48;;;;;;;;;;;;;;;22.27;47.51;100714.91;6131129;23;19908;-82
2022/05/24 12:51:17;;;;;;;;;;;;;;;22.26;47.58;100716.69;6106802;23;19913;-81
2022/05/24 12:53:42;;;;;;;;;;;;;;;22.28;47.46;100724.50;6155425;23;19909;-82
2022/05/24 12:56:14;;;;;;;;;;;;;;;22.28;47.41;100729.75;6130804;23;20288;-82
2022/05/24 12:58:40;;;;;;;;;;;;;;;22.27;47.42;100721.00;6130778;23;19913;-82
2022/05/24 13:01:07;;;;;;;;;;;;;;;22.28;47.50;100724.50;6130665;23;19940;-82
2022/05/24 13:03:33;;;;;;;;;;;;;;;22.28;47.60;100727.13;6130799;23;20297;-82
2022/05/24 13:05:58;;;;;;;;;;;;;;;22.28;47.45;100724.50;6130901;23;19908;-82
2022/05/24 13:08:25;;;;;;;;;;;;;;;22.28;47.40;100727.13;6106290;23;19913;-82
2022/05/24 13:10:51;;;;;;;;;;;;;;;22.26;47.29;100732.41;6156851;23;19913;-82
2022/05/24 13:13:21;;;;;;;;;;;;;;;22.28;47.31;100738.47;6130910;23;20000;-82
2022/05/24 13:15:49;;;;;;;;;;;;;;;22.27;47.56;100739.34;6130584;23;20064;-82
2022/05/24 13:18:14;;;;;;;;;;;;;;;22.30;47.67;100754.16;6124609;23;19913;-82
2022/05/24 13:20:43;;;;;;;;;;;;;;;22.30;47.49;100748.91;6100160;23;20348;-81
2022/05/24 13:23:14;;;;;;;;;;;;;;;22.31;47.35;100742.75;6100163;23;19913;-82
2022/05/24 13:25:51;;;;;;;;;;;;;;;22.31;47.39;100756.69;6100522;23;19924;-83
2022/05/24 13:28:35;;;;;;;;;;;;;;;22.31;47.34;100755.84;6124881;23;19909;-81
2022/05/24 13:33:50;;;;;;;;;;;;;;;22.31;47.52;100748.84;6124847;23;19963;-82